createdAt,value
2022-08-17T00:00:42.861Z,24.96
2022-08-17T00:03:08.381Z,24.95
2022-08-17T00:05:43.707Z,24.88
2022-08-17T00:08:11.983Z,24.82
2022-08-17T00:10:40.148Z,24.78
2022-08-17T00:13:09.337Z,24.79
2022-08-17T00:15:37.467Z,24.80
2022-08-17T00:19:01.912Z,24.81
2022-08-17T00:20:55.485Z,24.81
2022-08-17T00:23:23.670Z,24.83
2022-08-17T00:25:52.029Z,24.84
2022-08-17T00:28:20.202Z,24.83
2022-08-17T00:30:53.156Z,24.84
2022-08-17T00:33:25.985Z,24.83
2022-08-17T00:35:54.408Z,24.84
2022-08-17T00:38:22.501Z,24.83
2022-08-17T00:40:52.199Z,24.83
2022-08-17T00:43:29.088Z,24.83
2022-08-17T00:45:57.519Z,24.83
2022-08-17T00:48:30.134Z,24.83
2022-08-17T00:51:02.818Z,24.84
2022-08-17T00:53:32.099Z,24.83
2022-08-17T00:56:01.292Z,24.84
2022-08-17T00:58:36.217Z,24.82
2022-08-17T01:01:05.752Z,24.82
2022-08-17T01:03:35.359Z,24.83
2022-08-17T01:06:04.146Z,24.82
2022-08-17T01:08:32.438Z,24.82
2022-08-17T01:11:02.483Z,24.82
2022-08-17T01:13:38.181Z,24.82
2022-08-17T01:16:13.452Z,24.82
2022-08-17T01:18:43.298Z,24.81
2022-08-17T01:21:14.130Z,24.81
2022-08-17T01:23:43.883Z,24.81
2022-08-17T01:26:12.046Z,24.80
2022-08-17T01:28:53.984Z,24.79
2022-08-17T01:31:24.155Z,24.81
2022-08-17T01:33:52.328Z,24.79
2022-08-17T01:36:20.522Z,24.80
2022-08-17T01:38:50.031Z,24.78
2022-08-17T01:41:18.138Z,24.78
2022-08-17T01:43:48.898Z,24.77
2022-08-17T01:46:18.314Z,24.77
2022-08-17T01:48:47.665Z,24.78
2022-08-17T01:51:16.638Z,24.77
2022-08-17T01:53:47.386Z,24.76
2022-08-17T01:56:18.173Z,24.76
2022-08-17T01:58:46.351Z,24.76
2022-08-17T02:01:20.466Z,24.76
2022-08-17T02:03:59.143Z,24.76
2022-08-17T02:06:29.055Z,24.75
2022-08-17T02:09:01.526Z,24.75
2022-08-17T02:11:33.559Z,24.74
2022-08-17T02:14:04.072Z,24.75
2022-08-17T02:16:37.348Z,24.75
2022-08-17T02:19:07.701Z,24.74
2022-08-17T02:21:35.845Z,24.73
2022-08-17T02:24:04.366Z,24.73
2022-08-17T02:26:33.849Z,24.72
2022-08-17T02:29:02.056Z,24.72
2022-08-17T02:31:31.173Z,24.72
2022-08-17T02:34:03.921Z,24.71
2022-08-17T02:36:33.950Z,24.71
2022-08-17T02:39:02.487Z,24.71
2022-08-17T02:41:31.081Z,24.71
2022-08-17T02:44:00.597Z,24.71
2022-08-17T02:46:29.206Z,24.70
2022-08-17T02:48:57.561Z,24.70
2022-08-17T02:51:25.755Z,24.70
2022-08-17T02:54:03.885Z,24.70
2022-08-17T02:56:41.981Z,24.70
2022-08-17T02:59:11.459Z,24.69
2022-08-17T03:01:39.737Z,24.68
2022-08-17T03:04:07.855Z,24.69
2022-08-17T03:06:36.007Z,24.69
2022-08-17T03:09:04.113Z,24.69
2022-08-17T03:11:32.455Z,24.68
2022-08-17T03:14:00.515Z,24.68
2022-08-17T03:16:30.042Z,24.68
2022-08-17T03:18:58.189Z,24.67
2022-08-17T03:21:26.316Z,24.68
2022-08-17T03:23:54.785Z,24.67
2022-08-17T03:26:23.027Z,24.67
2022-08-17T03:28:51.119Z,24.66
2022-08-17T03:31:20.750Z,24.66
2022-08-17T03:33:50.299Z,24.66
2022-08-17T03:36:18.467Z,24.66
2022-08-17T03:38:46.628Z,24.65
2022-08-17T03:41:14.761Z,24.65
2022-08-17T03:43:43.079Z,24.65
2022-08-17T03:46:35.220Z,24.65
2022-08-17T03:49:23.471Z,24.65
2022-08-17T03:52:08.799Z,24.64
2022-08-17T03:54:54.658Z,24.62
2022-08-17T03:57:22.813Z,24.62
2022-08-17T03:59:51.112Z,24.62
2022-08-17T04:02:21.408Z,24.62
2022-08-17T04:04:52.470Z,24.62
2022-08-17T04:07:20.878Z,24.62
2022-08-17T04:09:49.067Z,24.62
2022-08-17T04:12:17.412Z,24.61
2022-08-17T04:14:52.206Z,24.62
2022-08-17T04:17:23.645Z,24.61
2022-08-17T04:19:53.244Z,24.60
2022-08-17T04:22:30.712Z,24.61
2022-08-17T04:24:59.831Z,24.60
2022-08-17T04:27:28.276Z,24.60
2022-08-17T04:29:56.449Z,24.60
2022-08-17T04:32:59.398Z,24.60
2022-08-17T04:35:14.067Z,24.60
2022-08-17T04:37:42.221Z,24.59
2022-08-17T04:40:29.015Z,24.59
2022-08-17T04:43:04.566Z,24.60
2022-08-17T04:45:32.832Z,24.59
2022-08-17T04:48:01.211Z,24.59
2022-08-17T04:50:30.802Z,24.59
2022-08-17T04:52:59.128Z,24.59
2022-08-17T04:55:27.535Z,24.59
2022-08-17T04:57:55.638Z,24.58
2022-08-17T05:00:25.844Z,24.58
2022-08-17T05:02:55.005Z,24.59
2022-08-17T05:05:24.267Z,24.58
2022-08-17T05:07:54.672Z,24.59
2022-08-17T05:10:22.801Z,24.60
2022-08-17T05:12:58.959Z,24.61
2022-08-17T05:15:27.519Z,24.61
2022-08-17T05:17:55.847Z,24.62
2022-08-17T05:20:24.355Z,24.62
2022-08-17T05:22:54.867Z,24.63
2022-08-17T05:25:25.656Z,24.61
2022-08-17T05:27:54.422Z,24.58
2022-08-17T05:30:22.842Z,24.55
2022-08-17T05:32:54.990Z,24.54
2022-08-17T05:35:23.466Z,24.52
2022-08-17T05:37:51.604Z,24.51
2022-08-17T05:40:21.547Z,24.51
2022-08-17T05:42:49.851Z,24.51
2022-08-17T05:45:32.078Z,24.50
2022-08-17T05:48:07.950Z,24.50
2022-08-17T05:50:51.519Z,24.48
2022-08-17T05:53:23.295Z,24.47
2022-08-17T05:55:58.134Z,24.47
2022-08-17T05:58:28.878Z,24.46
2022-08-17T06:00:59.694Z,24.44
2022-08-17T06:03:34.409Z,24.42
2022-08-17T06:06:17.132Z,24.43
2022-08-17T06:08:51.689Z,24.45
2022-08-17T06:11:25.490Z,24.48
2022-08-17T06:14:19.492Z,24.50
2022-08-17T06:16:49.350Z,24.48
2022-08-17T06:19:20.170Z,24.46
2022-08-17T06:21:51.352Z,24.45
2022-08-17T06:24:25.093Z,24.44
2022-08-17T06:26:55.134Z,24.44
2022-08-17T06:29:31.404Z,24.45
2022-08-17T06:31:59.573Z,24.44
2022-08-17T06:34:27.799Z,24.45
2022-08-17T06:37:00.415Z,24.46
2022-08-17T06:39:37.000Z,24.46
2022-08-17T06:42:54.061Z,24.45
2022-08-17T06:45:04.238Z,24.45
2022-08-17T06:47:35.404Z,24.44
2022-08-17T06:50:08.883Z,24.42
2022-08-17T06:52:46.144Z,24.41
2022-08-17T06:55:18.823Z,24.39
2022-08-17T06:57:51.146Z,24.38
2022-08-17T07:00:20.252Z,24.39
2022-08-17T07:02:52.051Z,24.39
2022-08-17T07:05:22.609Z,24.41
2022-08-17T07:08:05.668Z,24.41
2022-08-17T07:10:39.757Z,24.42
2022-08-17T07:13:22.906Z,24.44
2022-08-17T07:15:56.401Z,24.46
2022-08-17T07:18:26.311Z,24.47
2022-08-17T07:20:56.592Z,24.50
2022-08-17T07:23:28.492Z,24.52
2022-08-17T07:26:05.170Z,24.53
2022-08-17T07:28:34.858Z,24.54
2022-08-17T07:31:03.914Z,24.55
2022-08-17T07:33:34.332Z,24.57
2022-08-17T07:36:02.430Z,24.59
2022-08-17T07:38:31.220Z,24.61
2022-08-17T07:41:04.834Z,24.64
2022-08-17T07:43:35.393Z,24.65
2022-08-17T07:46:35.345Z,24.67
2022-08-17T07:49:35.026Z,24.69
2022-08-17T07:52:24.155Z,24.72
2022-08-17T07:54:54.569Z,24.76
2022-08-17T07:57:32.769Z,24.78
2022-08-17T08:00:20.723Z,24.80
2022-08-17T08:03:16.059Z,24.82
2022-08-17T08:05:55.114Z,24.84
2022-08-17T08:08:28.165Z,24.86
2022-08-17T08:11:02.871Z,24.88
2022-08-17T08:13:32.302Z,24.89
2022-08-17T08:16:25.584Z,24.90
2022-08-17T08:18:57.423Z,24.93
2022-08-17T08:21:34.556Z,24.95
2022-08-17T08:24:16.995Z,24.98
2022-08-17T08:26:46.493Z,25.00
2022-08-17T08:29:20.380Z,25.03
2022-08-17T08:31:56.364Z,25.04
2022-08-17T08:34:44.557Z,25.06
2022-08-17T08:37:30.329Z,25.08
2022-08-17T08:40:07.399Z,25.09
2022-08-17T08:42:38.474Z,25.10
2022-08-17T08:45:09.526Z,25.10
2022-08-17T08:47:55.571Z,25.12
2022-08-17T08:50:37.524Z,25.13
2022-08-17T08:53:19.014Z,25.13
2022-08-17T08:55:50.691Z,25.14
2022-08-17T08:58:32.271Z,25.14
2022-08-17T09:01:16.808Z,25.15
2022-08-17T09:04:21.365Z,25.16
2022-08-17T09:06:57.399Z,25.16
2022-08-17T09:09:29.735Z,25.14
2022-08-17T09:12:04.150Z,25.14
2022-08-17T09:14:36.578Z,25.13
2022-08-17T09:17:17.195Z,25.13
2022-08-17T09:19:50.606Z,25.12
2022-08-17T09:22:25.534Z,25.13
2022-08-17T09:24:57.248Z,25.12
2022-08-17T09:27:28.386Z,25.12
2022-08-17T09:30:00.045Z,25.14
2022-08-17T09:32:32.391Z,25.14
2022-08-17T09:35:03.342Z,25.13
2022-08-17T09:37:33.937Z,25.14
2022-08-17T09:40:09.707Z,25.15
2022-08-17T09:42:41.694Z,25.16
2022-08-17T09:45:17.517Z,25.17
2022-08-17T09:47:49.506Z,25.19
2022-08-17T09:51:03.893Z,25.18
2022-08-17T09:53:10.119Z,25.19
2022-08-17T09:55:58.032Z,25.18
2022-08-17T09:58:30.611Z,25.19
2022-08-17T10:01:07.935Z,25.19
2022-08-17T10:03:52.885Z,25.19
2022-08-17T10:06:24.318Z,25.20
2022-08-17T10:08:54.064Z,25.19
2022-08-17T10:11:48.431Z,25.19
2022-08-17T10:14:36.325Z,25.19
2022-08-17T10:17:10.115Z,25.20
2022-08-17T10:19:43.972Z,25.21
2022-08-17T10:22:37.756Z,25.23
2022-08-17T10:25:30.192Z,25.25
2022-08-17T10:28:11.726Z,25.24
2022-08-17T10:30:50.241Z,25.25
2022-08-17T10:33:20.961Z,25.26
2022-08-17T10:35:50.423Z,25.27
2022-08-17T10:38:32.619Z,25.29
2022-08-17T10:41:03.390Z,25.30
2022-08-17T10:43:44.766Z,25.33
2022-08-17T10:46:48.433Z,25.37
2022-08-17T10:49:36.579Z,25.38
2022-08-17T10:52:09.014Z,25.39
2022-08-17T10:54:48.335Z,25.40
2022-08-17T10:57:36.651Z,25.43
2022-08-17T11:00:12.982Z,25.46
2022-08-17T11:02:47.944Z,25.49
2022-08-17T11:05:31.744Z,25.47
2022-08-17T11:08:18.645Z,25.47
2022-08-17T11:10:57.060Z,25.46
2022-08-17T11:13:31.333Z,25.46
2022-08-17T11:16:08.964Z,25.45
2022-08-17T11:18:45.883Z,25.45
2022-08-17T11:21:35.851Z,25.44
2022-08-17T11:24:15.022Z,25.45
2022-08-17T11:26:47.699Z,25.45
2022-08-17T11:29:21.903Z,25.46
2022-08-17T11:32:01.606Z,25.46
2022-08-17T11:34:30.289Z,25.46
2022-08-17T11:37:19.242Z,25.47
2022-08-17T11:40:16.560Z,25.47
2022-08-17T11:43:10.116Z,25.49
2022-08-17T11:45:56.918Z,25.49
2022-08-17T11:48:46.056Z,25.50
2022-08-17T11:51:32.490Z,25.50
2022-08-17T11:54:31.599Z,25.51
2022-08-17T11:56:54.913Z,25.50
2022-08-17T11:59:59.040Z,25.50
2022-08-17T12:02:48.903Z,25.55
2022-08-17T12:05:38.103Z,25.61
2022-08-17T12:08:17.746Z,25.64
2022-08-17T12:10:59.670Z,25.65
2022-08-17T12:13:38.580Z,25.65
2022-08-17T12:16:10.061Z,25.62
2022-08-17T12:18:42.055Z,25.61
2022-08-17T12:21:34.382Z,25.60
2022-08-17T12:24:06.601Z,25.60
2022-08-17T12:26:35.722Z,25.60
2022-08-17T12:29:05.152Z,25.60
2022-08-17T12:31:36.276Z,25.61
2022-08-17T12:34:04.594Z,25.61
2022-08-17T12:36:33.318Z,25.61
2022-08-17T12:39:12.955Z,25.62
2022-08-17T12:41:44.407Z,25.62
2022-08-17T12:44:15.463Z,25.63
2022-08-17T12:46:51.330Z,25.64
2022-08-17T12:49:30.714Z,25.64
2022-08-17T12:52:07.962Z,25.65
2022-08-17T12:54:42.010Z,25.66
2022-08-17T12:57:13.622Z,25.66
2022-08-17T12:59:43.785Z,25.65
2022-08-17T13:02:22.171Z,25.67
2022-08-17T13:04:50.305Z,25.67
2022-08-17T13:07:31.897Z,25.68
2022-08-17T13:10:00.192Z,25.68
2022-08-17T13:12:30.330Z,25.70
2022-08-17T13:14:58.620Z,25.70
2022-08-17T13:17:32.918Z,25.71
2022-08-17T13:20:01.092Z,25.73
2022-08-17T13:22:29.731Z,25.74
2022-08-17T13:24:58.777Z,25.74
2022-08-17T13:27:28.068Z,25.76
2022-08-17T13:29:58.078Z,25.75
2022-08-17T13:32:36.150Z,25.77
2022-08-17T13:35:32.250Z,25.77
2022-08-17T13:38:08.946Z,25.78
2022-08-17T13:40:42.821Z,25.78
2022-08-17T13:43:11.305Z,25.79
2022-08-17T13:45:51.267Z,25.81
2022-08-17T13:48:28.622Z,25.79
2022-08-17T13:51:30.615Z,25.80
2022-08-17T13:54:10.002Z,25.80
2022-08-17T13:56:41.020Z,25.80
2022-08-17T13:59:11.191Z,25.81
2022-08-17T14:01:40.542Z,25.81
2022-08-17T14:04:11.391Z,25.82
2022-08-17T14:06:54.013Z,25.83
2022-08-17T14:09:24.144Z,25.85
2022-08-17T14:11:52.653Z,25.85
2022-08-17T14:14:23.302Z,25.87
2022-08-17T14:16:51.742Z,25.88
2022-08-17T14:19:21.894Z,25.88
2022-08-17T14:21:50.098Z,25.89
2022-08-17T14:24:22.982Z,25.89
2022-08-17T14:26:52.542Z,25.91
2022-08-17T14:29:21.215Z,25.91
2022-08-17T14:31:54.201Z,25.93
2022-08-17T14:34:24.593Z,25.94
2022-08-17T14:36:52.714Z,25.95
2022-08-17T14:39:20.951Z,25.95
2022-08-17T14:41:49.122Z,25.95
2022-08-17T14:44:17.305Z,25.94
2022-08-17T14:46:45.707Z,25.93
2022-08-17T14:49:15.665Z,25.93
2022-08-17T14:51:45.163Z,25.92
2022-08-17T14:54:33.290Z,25.94
2022-08-17T14:57:23.405Z,25.95
2022-08-17T14:59:53.357Z,25.95
2022-08-17T15:02:29.297Z,25.96
2022-08-17T15:05:02.394Z,25.95
2022-08-17T15:07:32.017Z,25.95
2022-08-17T15:10:01.427Z,25.96
2022-08-17T15:12:33.360Z,25.96
2022-08-17T15:15:04.521Z,25.97
2022-08-17T15:17:44.333Z,25.96
2022-08-17T15:20:15.347Z,25.97
2022-08-17T15:22:45.519Z,25.96
2022-08-17T15:25:13.846Z,25.98
2022-08-17T15:27:41.943Z,25.98
2022-08-17T15:30:11.115Z,25.99
2022-08-17T15:32:40.935Z,25.99
2022-08-17T15:35:18.765Z,26.00
2022-08-17T15:37:54.971Z,26.01
2022-08-17T15:40:23.090Z,26.02
2022-08-17T15:42:51.407Z,26.02
2022-08-17T15:45:19.949Z,26.04
2022-08-17T15:47:48.251Z,26.05
2022-08-17T15:50:16.771Z,26.06
2022-08-17T15:52:45.102Z,26.06
2022-08-17T15:55:15.659Z,26.06
2022-08-17T15:57:44.618Z,26.07
2022-08-17T16:00:13.287Z,26.07
2022-08-17T16:03:44.507Z,26.08
2022-08-17T16:05:31.129Z,26.09
2022-08-17T16:07:59.999Z,26.10
2022-08-17T16:10:35.508Z,26.10
2022-08-17T16:13:04.424Z,26.13
2022-08-17T16:15:32.772Z,26.13
2022-08-17T16:18:00.912Z,26.14
2022-08-17T16:20:30.696Z,26.15
2022-08-17T16:22:59.618Z,26.17
2022-08-17T16:25:53.054Z,26.18
2022-08-17T16:28:19.778Z,26.19
2022-08-17T16:30:51.709Z,26.20
2022-08-17T16:33:20.220Z,26.21
2022-08-17T16:35:48.374Z,26.22
2022-08-17T16:38:16.707Z,26.24
2022-08-17T16:40:46.546Z,26.25
2022-08-17T16:43:15.482Z,26.27
2022-08-17T16:45:47.471Z,26.28
2022-08-17T16:48:18.529Z,26.28
2022-08-17T16:50:59.974Z,26.30
2022-08-17T16:53:32.623Z,26.31
2022-08-17T16:56:03.704Z,26.31
2022-08-17T16:58:32.041Z,26.32
2022-08-17T17:01:00.430Z,26.33
2022-08-17T17:03:28.930Z,26.34
2022-08-17T17:06:10.578Z,26.35
2022-08-17T17:08:44.567Z,26.36
2022-08-17T17:11:17.714Z,26.37
2022-08-17T17:13:48.114Z,26.39
2022-08-17T17:16:19.563Z,26.42
2022-08-17T17:19:05.311Z,26.44
2022-08-17T17:21:36.655Z,26.46
2022-08-17T17:24:06.322Z,26.47
2022-08-17T17:27:02.105Z,26.47
2022-08-17T17:29:48.205Z,26.46
2022-08-17T17:32:21.129Z,26.47
2022-08-17T17:34:51.185Z,26.45
2022-08-17T17:37:23.919Z,26.46
2022-08-17T17:39:53.407Z,26.46
2022-08-17T17:42:28.282Z,26.46
2022-08-17T17:45:01.079Z,26.46
2022-08-17T17:47:29.992Z,26.46
2022-08-17T17:49:58.109Z,26.45
2022-08-17T17:52:31.276Z,26.46
2022-08-17T17:55:08.399Z,26.45
2022-08-17T17:57:46.941Z,26.46
2022-08-17T18:00:16.362Z,26.46
2022-08-17T18:02:54.566Z,26.46
2022-08-17T18:05:38.956Z,26.47
2022-08-17T18:08:12.677Z,26.47
2022-08-17T18:10:49.173Z,26.48
2022-08-17T18:13:26.643Z,26.46
2022-08-17T18:15:55.590Z,26.48
2022-08-17T18:18:37.916Z,26.47
2022-08-17T18:21:15.882Z,26.46
2022-08-17T18:23:56.337Z,26.46
2022-08-17T18:26:44.782Z,26.46
2022-08-17T18:29:32.289Z,26.46
2022-08-17T18:32:14.618Z,26.44
2022-08-17T18:34:47.810Z,26.45
2022-08-17T18:37:31.652Z,26.44
2022-08-17T18:39:59.851Z,26.43
2022-08-17T18:42:29.573Z,26.42
2022-08-17T18:44:59.067Z,26.42
2022-08-17T18:47:28.034Z,26.42
2022-08-17T18:49:57.913Z,26.41
2022-08-17T18:52:27.788Z,26.41
2022-08-17T18:55:09.781Z,26.41
2022-08-17T18:57:39.002Z,26.40
2022-08-17T19:00:17.003Z,26.40
2022-08-17T19:02:55.299Z,26.39
2022-08-17T19:05:29.485Z,26.38
2022-08-17T19:08:19.582Z,26.39
2022-08-17T19:10:49.183Z,26.39
2022-08-17T19:13:23.277Z,26.38
2022-08-17T19:16:14.020Z,26.37
2022-08-17T19:18:45.851Z,26.37
2022-08-17T19:21:16.798Z,26.37
2022-08-17T19:23:54.112Z,26.35
2022-08-17T19:26:53.318Z,26.33
2022-08-17T19:29:16.644Z,26.34
2022-08-17T19:31:52.879Z,26.33
2022-08-17T19:34:32.333Z,26.32
2022-08-17T19:37:04.203Z,26.32
2022-08-17T19:39:38.188Z,26.31
2022-08-17T19:42:12.201Z,26.31
2022-08-17T19:44:47.158Z,26.30
2022-08-17T19:47:36.319Z,26.30
2022-08-17T19:50:09.995Z,26.29
2022-08-17T19:52:49.339Z,26.29
2022-08-17T19:55:24.463Z,26.29
2022-08-17T19:57:58.883Z,26.29
2022-08-17T20:00:27.033Z,26.28
2022-08-17T20:02:59.487Z,26.27
2022-08-17T20:05:29.348Z,26.26
2022-08-17T20:07:59.683Z,26.26
2022-08-17T20:10:32.375Z,26.25
2022-08-17T20:13:04.653Z,26.24
2022-08-17T20:15:34.804Z,26.23
2022-08-17T20:18:06.812Z,26.23
2022-08-17T20:20:37.447Z,26.21
2022-08-17T20:23:13.381Z,26.21
2022-08-17T20:25:46.031Z,26.20
2022-08-17T20:28:19.531Z,26.20
2022-08-17T20:30:47.819Z,26.20
2022-08-17T20:33:26.566Z,26.19
2022-08-17T20:36:13.806Z,26.20
2022-08-17T20:38:44.214Z,26.19
2022-08-17T20:41:14.234Z,26.18
2022-08-17T20:44:02.646Z,26.17
2022-08-17T20:46:50.837Z,26.16
2022-08-17T20:49:40.238Z,26.15
2022-08-17T20:52:09.486Z,26.17
2022-08-17T20:54:49.072Z,26.17
2022-08-17T20:57:47.500Z,26.16
2022-08-17T21:00:43.037Z,26.16
2022-08-17T21:03:50.801Z,26.16
2022-08-17T21:06:25.013Z,26.15
2022-08-17T21:08:59.017Z,26.15
2022-08-17T21:12:03.168Z,26.15
2022-08-17T21:14:41.881Z,26.15
2022-08-17T21:17:18.481Z,26.14
2022-08-17T21:20:10.156Z,26.15
2022-08-17T21:22:49.996Z,26.14
2022-08-17T21:25:30.215Z,26.13
2022-08-17T21:28:13.403Z,26.13
2022-08-17T21:30:48.067Z,26.12
2022-08-17T21:33:24.978Z,26.13
2022-08-17T21:35:58.552Z,26.13
2022-08-17T21:38:36.251Z,26.13
2022-08-17T21:41:04.415Z,26.12
2022-08-17T21:43:33.517Z,26.12
2022-08-17T21:46:03.952Z,26.11
2022-08-17T21:48:33.095Z,26.11
2022-08-17T21:51:09.002Z,26.10
2022-08-17T21:53:40.454Z,26.09
2022-08-17T21:56:08.952Z,26.08
2022-08-17T21:58:40.388Z,26.08
2022-08-17T22:01:21.092Z,26.07
2022-08-17T22:03:56.629Z,26.07
2022-08-17T22:06:26.482Z,26.06
2022-08-17T22:09:06.531Z,26.05
2022-08-17T22:11:52.790Z,26.04
2022-08-17T22:14:22.462Z,26.04
2022-08-17T22:16:57.488Z,26.03
2022-08-17T22:19:29.510Z,26.02
2022-08-17T22:22:04.361Z,26.01
2022-08-17T22:24:33.113Z,26.01
2022-08-17T22:27:06.953Z,26.00
2022-08-17T22:29:53.280Z,25.99
2022-08-17T22:32:50.405Z,25.99
2022-08-17T22:35:35.127Z,25.97
2022-08-17T22:38:29.057Z,25.97
2022-08-17T22:41:15.165Z,25.96
2022-08-17T22:43:43.314Z,25.96
2022-08-17T22:46:13.045Z,25.96
2022-08-17T22:48:47.690Z,25.95
2022-08-17T22:51:19.147Z,25.96
2022-08-17T22:54:05.285Z,25.94
2022-08-17T22:56:52.291Z,25.93
2022-08-17T22:59:47.559Z,25.94
2022-08-17T23:02:22.037Z,25.93
2022-08-17T23:04:52.442Z,25.92
2022-08-17T23:07:20.771Z,25.93
2022-08-17T23:09:48.922Z,25.92
2022-08-17T23:12:22.602Z,25.92
2022-08-17T23:14:52.634Z,25.91
2022-08-17T23:17:21.044Z,25.91
2022-08-17T23:19:49.183Z,25.91
2022-08-17T23:22:17.355Z,25.91
2022-08-17T23:24:46.539Z,25.91
2022-08-17T23:27:14.626Z,25.90
2022-08-17T23:29:44.114Z,25.90
2022-08-17T23:32:13.916Z,25.90
2022-08-17T23:34:42.673Z,25.89
2022-08-17T23:37:11.593Z,25.88
2022-08-17T23:39:39.966Z,25.88
2022-08-17T23:42:09.025Z,25.89
2022-08-17T23:44:37.411Z,25.87
2022-08-17T23:47:07.903Z,25.85
2022-08-17T23:49:36.369Z,25.87
2022-08-17T23:52:06.245Z,25.86
2022-08-17T23:54:35.593Z,25.86
2022-08-17T23:57:04.620Z,25.87
2022-08-17T23:59:33.914Z,25.85
